createdAt,value
2023-04-24T00:01:44.545Z,1.90
2023-04-24T00:04:12.178Z,1.30
2023-04-24T00:06:39.636Z,1.80
2023-04-24T00:09:06.050Z,1.75
2023-04-24T00:11:32.426Z,1.38
2023-04-24T00:13:58.829Z,1.40
2023-04-24T00:16:25.304Z,1.42
2023-04-24T00:18:53.611Z,1.20
2023-04-24T00:21:20.142Z,1.27
2023-04-24T00:23:46.680Z,1.38
2023-04-24T00:26:13.040Z,1.20
2023-04-24T00:28:39.387Z,1.50
2023-04-24T00:31:05.801Z,1.27
2023-04-24T00:33:32.149Z,1.48
2023-04-24T00:35:58.794Z,1.15
2023-04-24T00:38:25.524Z,1.45
2023-04-24T00:40:52.069Z,1.98
2023-04-24T00:43:18.552Z,1.35
2023-04-24T00:45:45.299Z,1.20
2023-04-24T00:48:12.857Z,1.30
2023-04-24T00:50:39.670Z,1.38
2023-04-24T00:53:06.496Z,1.20
2023-04-24T00:55:33.062Z,1.15
2023-04-24T00:57:59.609Z,1.50
2023-04-24T01:00:26.336Z,1.30
2023-04-24T01:02:53.019Z,1.40
2023-04-24T01:05:20.049Z,1.45
2023-04-24T01:07:48.111Z,1.20
2023-04-24T01:10:15.324Z,1.30
2023-04-24T01:12:42.269Z,1.33
2023-04-24T01:15:09.452Z,1.40
2023-04-24T01:17:36.074Z,1.70
2023-04-24T01:20:05.072Z,1.50
2023-04-24T01:22:31.443Z,1.30
2023-04-24T01:24:58.195Z,1.33
2023-04-24T01:27:24.624Z,1.05
2023-04-24T01:29:52.827Z,1.40
2023-04-24T01:32:19.711Z,1.70
2023-04-24T01:34:46.291Z,1.50
2023-04-24T01:37:12.752Z,1.40
2023-04-24T01:39:39.121Z,1.27
2023-04-24T01:42:05.536Z,1.30
2023-04-24T01:44:32.042Z,1.65
2023-04-24T01:46:58.537Z,1.55
2023-04-24T01:49:24.938Z,1.67
2023-04-24T01:51:51.286Z,2.00
2023-04-24T01:54:17.672Z,1.50
2023-04-24T01:56:44.510Z,1.45
2023-04-24T01:59:11.948Z,1.42
2023-04-24T02:01:39.201Z,1.35
2023-04-24T02:04:06.894Z,1.65
2023-04-24T02:06:33.541Z,1.38
2023-04-24T02:09:00.520Z,1.77
2023-04-24T02:11:27.081Z,1.70
2023-04-24T02:13:53.973Z,1.58
2023-04-24T02:16:20.413Z,1.50
2023-04-24T02:18:46.823Z,1.73
2023-04-24T02:21:13.182Z,1.80
2023-04-24T02:23:39.612Z,1.98
2023-04-24T02:26:08.073Z,1.70
2023-04-24T02:28:34.511Z,2.10
2023-04-24T02:31:01.384Z,1.88
2023-04-24T02:33:27.992Z,2.13
2023-04-24T02:35:54.334Z,1.83
2023-04-24T02:38:20.728Z,1.73
2023-04-24T02:40:47.095Z,1.60
2023-04-24T02:43:13.473Z,1.50
2023-04-24T02:45:40.088Z,1.30
2023-04-24T02:48:06.552Z,2.20
2023-04-24T02:50:34.510Z,1.48
2023-04-24T02:53:00.908Z,1.70
2023-04-24T02:55:27.337Z,1.63
2023-04-24T02:57:53.725Z,1.92
2023-04-24T03:00:20.381Z,1.27
2023-04-24T03:02:47.052Z,1.40
2023-04-24T03:05:13.589Z,1.40
2023-04-24T03:07:40.091Z,1.50
2023-04-24T03:10:07.336Z,1.42
2023-04-24T03:12:33.883Z,1.77
2023-04-24T03:15:00.564Z,1.48
2023-04-24T03:17:26.978Z,1.50
2023-04-24T03:19:53.340Z,1.80
2023-04-24T03:22:19.681Z,1.40
2023-04-24T03:24:46.025Z,1.90
2023-04-24T03:27:12.446Z,1.48
2023-04-24T03:29:38.836Z,1.60
2023-04-24T03:32:05.242Z,1.83
2023-04-24T03:34:31.622Z,1.60
2023-04-24T03:36:57.985Z,1.88
2023-04-24T03:39:26.114Z,1.50
2023-04-24T03:41:52.561Z,1.50
2023-04-24T03:44:18.945Z,1.67
2023-04-24T03:46:45.435Z,1.65
2023-04-24T03:49:11.834Z,1.50
2023-04-24T03:51:38.215Z,1.65
2023-04-24T03:54:04.591Z,1.63
2023-04-24T03:56:30.984Z,1.40
2023-04-24T03:58:57.303Z,2.03
2023-04-24T04:01:24.022Z,1.45
2023-04-24T04:03:50.512Z,1.23
2023-04-24T04:06:17.007Z,1.27
2023-04-24T04:08:43.360Z,1.38
2023-04-24T04:11:09.718Z,1.20
2023-04-24T04:13:36.046Z,1.15
2023-04-24T04:16:02.467Z,1.52
2023-04-24T04:18:28.823Z,1.17
2023-04-24T04:20:55.198Z,1.10
2023-04-24T04:23:21.551Z,1.40
2023-04-24T04:25:47.989Z,1.60
2023-04-24T04:28:14.390Z,1.40
2023-04-24T04:30:41.151Z,1.20
2023-04-24T04:33:07.537Z,1.50
2023-04-24T04:35:33.914Z,1.48
2023-04-24T04:38:00.295Z,1.45
2023-04-24T04:40:27.795Z,1.63
2023-04-24T04:42:54.372Z,1.52
2023-04-24T04:45:21.462Z,1.42
2023-04-24T04:47:48.345Z,1.63
2023-04-24T04:50:14.723Z,1.30
2023-04-24T04:52:41.142Z,1.55
2023-04-24T04:55:08.642Z,1.40
2023-04-24T04:57:35.005Z,1.40
2023-04-24T05:00:01.376Z,1.40
2023-04-24T05:02:27.901Z,1.83
2023-04-24T05:04:54.505Z,1.77
2023-04-24T05:07:21.339Z,1.60
2023-04-24T05:09:47.730Z,1.67
2023-04-24T05:12:14.090Z,1.42
2023-04-24T05:14:40.511Z,1.60
2023-04-24T05:17:06.970Z,1.52
2023-04-24T05:19:36.841Z,1.95
2023-04-24T05:22:04.180Z,1.60
2023-04-24T05:24:30.576Z,1.73
2023-04-24T05:26:57.962Z,1.60
2023-04-24T05:29:24.302Z,1.52
2023-04-24T05:31:50.772Z,2.00
2023-04-24T05:34:17.715Z,2.45
2023-04-24T05:36:44.127Z,2.25
2023-04-24T05:39:10.646Z,2.42
2023-04-24T05:41:37.078Z,2.60
2023-04-24T05:44:03.418Z,2.35
2023-04-24T05:46:29.790Z,2.53
2023-04-24T05:48:56.178Z,2.97
2023-04-24T05:51:22.695Z,3.10
2023-04-24T05:53:49.111Z,2.97
2023-04-24T05:56:16.523Z,2.45
2023-04-24T05:58:43.154Z,3.15
2023-04-24T06:01:09.511Z,3.00
2023-04-24T06:03:36.233Z,3.05
2023-04-24T06:06:02.786Z,3.13
2023-04-24T06:08:29.169Z,3.40
2023-04-24T06:10:55.565Z,3.28
2023-04-24T06:13:21.937Z,3.13
2023-04-24T06:15:48.245Z,2.72
2023-04-24T06:18:14.675Z,3.28
2023-04-24T06:20:41.077Z,3.28
2023-04-24T06:23:07.460Z,3.60
2023-04-24T06:25:33.921Z,3.53
2023-04-24T06:28:00.401Z,3.80
2023-04-24T06:30:28.024Z,3.55
2023-04-24T06:32:55.821Z,3.50
2023-04-24T06:35:23.898Z,3.45
2023-04-24T06:37:50.423Z,3.25
2023-04-24T06:40:16.818Z,3.08
2023-04-24T06:42:43.426Z,3.78
2023-04-24T06:45:10.146Z,3.58
2023-04-24T06:47:36.657Z,3.30
2023-04-24T06:50:03.313Z,3.55
2023-04-24T06:52:29.794Z,3.10
2023-04-24T06:55:02.347Z,3.45
2023-04-24T06:57:28.763Z,3.40
2023-04-24T06:59:55.387Z,3.25
2023-04-24T07:02:21.789Z,2.90
2023-04-24T07:04:48.596Z,2.72
2023-04-24T07:07:15.355Z,2.92
2023-04-24T07:09:45.533Z,3.03
2023-04-24T07:12:12.971Z,3.05
2023-04-24T07:14:39.365Z,2.92
2023-04-24T07:17:07.123Z,2.83
2023-04-24T07:19:36.566Z,2.80
2023-04-24T07:22:04.172Z,2.47
2023-04-24T07:24:33.056Z,2.90
2023-04-24T07:26:59.749Z,2.65
2023-04-24T07:29:26.301Z,3.00
2023-04-24T07:31:53.116Z,2.40
2023-04-24T07:34:19.522Z,2.50
2023-04-24T07:36:45.912Z,2.78
2023-04-24T07:39:12.280Z,2.88
2023-04-24T07:41:38.603Z,3.10
2023-04-24T07:44:04.998Z,2.72
2023-04-24T07:46:31.497Z,3.22
2023-04-24T07:49:11.684Z,2.60
2023-04-24T07:51:40.191Z,2.88
2023-04-24T07:54:06.940Z,2.65
2023-04-24T07:56:34.297Z,2.88
2023-04-24T07:59:02.040Z,2.22
2023-04-24T08:01:28.496Z,2.53
2023-04-24T08:03:55.036Z,3.17
2023-04-24T08:06:21.579Z,2.65
2023-04-24T08:08:47.966Z,2.53
2023-04-24T08:11:14.365Z,2.42
2023-04-24T08:13:40.847Z,2.75
2023-04-24T08:16:07.301Z,2.70
2023-04-24T08:18:34.305Z,2.83
2023-04-24T08:21:02.236Z,2.80
2023-04-24T08:23:29.721Z,2.78
2023-04-24T08:25:56.102Z,2.83
2023-04-24T08:28:22.879Z,2.63
2023-04-24T08:30:49.280Z,3.28
2023-04-24T08:33:16.074Z,2.67
2023-04-24T08:35:42.437Z,2.83
2023-04-24T08:38:08.812Z,2.60
2023-04-24T08:40:35.897Z,2.67
2023-04-24T08:43:02.301Z,2.90
2023-04-24T08:45:29.044Z,2.67
2023-04-24T08:47:55.714Z,2.80
2023-04-24T08:50:23.191Z,2.78
2023-04-24T08:52:51.787Z,2.85
2023-04-24T08:55:19.090Z,2.20
2023-04-24T08:57:46.673Z,2.70
2023-04-24T09:00:13.520Z,3.17
2023-04-24T09:02:48.890Z,2.90
2023-04-24T09:05:18.602Z,2.50
2023-04-24T09:07:47.206Z,2.70
2023-04-24T09:10:14.017Z,2.47
2023-04-24T09:12:40.613Z,2.35
2023-04-24T09:15:08.289Z,2.50
2023-04-24T09:17:35.261Z,2.30
2023-04-24T09:20:01.748Z,3.00
2023-04-24T09:22:31.252Z,2.30
2023-04-24T09:25:06.347Z,2.75
2023-04-24T09:27:33.243Z,2.75
2023-04-24T09:30:00.098Z,2.25
2023-04-24T09:32:26.828Z,2.47
2023-04-24T09:35:11.636Z,2.22
2023-04-24T09:37:40.443Z,2.03
2023-04-24T09:40:12.585Z,2.13
2023-04-24T09:42:39.518Z,2.25
2023-04-24T09:45:15.021Z,1.98
2023-04-24T09:47:42.692Z,2.20
2023-04-24T09:50:17.053Z,2.28
2023-04-24T09:52:45.595Z,2.40
2023-04-24T09:55:21.442Z,2.30
2023-04-24T09:58:01.770Z,2.22
2023-04-24T10:00:32.684Z,2.28
2023-04-24T10:03:00.628Z,2.38
2023-04-24T10:05:32.211Z,2.28
2023-04-24T10:08:07.027Z,2.05
2023-04-24T10:10:35.720Z,2.47
2023-04-24T10:13:02.378Z,2.40
2023-04-24T10:15:28.776Z,2.40
2023-04-24T10:17:55.544Z,2.55
2023-04-24T10:20:27.127Z,2.28
2023-04-24T10:22:54.706Z,2.17
2023-04-24T10:25:23.198Z,2.47
2023-04-24T10:27:50.525Z,2.63
2023-04-24T10:30:17.708Z,2.42
2023-04-24T10:32:44.301Z,2.25
2023-04-24T10:35:14.584Z,2.33
2023-04-24T10:37:44.239Z,2.60
2023-04-24T10:40:11.520Z,3.20
2023-04-24T10:42:43.223Z,3.10
2023-04-24T10:45:22.171Z,3.00
2023-04-24T10:48:04.366Z,2.33
2023-04-24T10:50:48.849Z,2.63
2023-04-24T10:53:20.100Z,2.38
2023-04-24T10:55:47.823Z,2.20
2023-04-24T10:58:15.694Z,2.75
2023-04-24T11:00:42.447Z,2.53
2023-04-24T11:03:26.397Z,2.40
2023-04-24T11:06:03.094Z,2.28
2023-04-24T11:08:30.669Z,2.78
2023-04-24T11:11:00.935Z,2.47
2023-04-24T11:13:49.345Z,2.00
2023-04-24T11:16:35.261Z,2.00
2023-04-24T11:19:11.976Z,2.17
2023-04-24T11:21:58.375Z,1.55
2023-04-24T11:24:27.598Z,1.60
2023-04-24T11:27:02.609Z,1.38
2023-04-24T11:29:46.011Z,1.33
2023-04-24T11:32:17.065Z,1.27
2023-04-24T11:34:47.042Z,1.33
2023-04-24T11:37:13.998Z,1.50
2023-04-24T11:39:43.241Z,2.22
2023-04-24T11:42:10.442Z,1.70
2023-04-24T11:44:38.232Z,1.73
2023-04-24T11:47:06.474Z,1.90
2023-04-24T11:49:33.021Z,1.50
2023-04-24T11:52:01.805Z,1.60
2023-04-24T11:54:28.325Z,1.40
2023-04-24T11:56:54.678Z,1.60
2023-04-24T11:59:21.079Z,2.05
2023-04-24T12:01:47.997Z,2.40
2023-04-24T12:04:15.285Z,35.25
2023-04-24T12:06:59.919Z,8.35
2023-04-24T12:09:28.720Z,5.82
2023-04-24T12:11:57.835Z,4.47
2023-04-24T12:14:25.015Z,3.05
2023-04-24T12:16:52.489Z,2.10
2023-04-24T12:19:21.318Z,2.88
2023-04-24T12:22:00.787Z,2.80
2023-04-24T12:24:27.190Z,2.17
2023-04-24T12:26:54.772Z,2.97
2023-04-24T12:29:24.908Z,3.00
2023-04-24T12:31:52.496Z,2.88
2023-04-24T12:34:26.412Z,2.83
2023-04-24T12:36:53.118Z,2.95
2023-04-24T12:39:20.504Z,2.47
2023-04-24T12:42:00.415Z,3.70
2023-04-24T12:44:35.532Z,3.20
2023-04-24T12:47:02.541Z,3.70
2023-04-24T12:49:31.293Z,3.30
2023-04-24T12:51:57.670Z,3.58
2023-04-24T12:54:24.062Z,2.95
2023-04-24T12:56:50.456Z,2.60
2023-04-24T12:59:16.875Z,3.63
2023-04-24T13:01:43.353Z,2.95
2023-04-24T13:04:09.999Z,3.10
2023-04-24T13:06:36.516Z,2.58
2023-04-24T13:09:03.098Z,2.95
2023-04-24T13:11:29.559Z,2.88
2023-04-24T13:13:55.997Z,2.90
2023-04-24T13:16:24.043Z,2.67
2023-04-24T13:18:50.481Z,2.30
2023-04-24T13:21:16.968Z,2.67
2023-04-24T13:23:43.541Z,2.63
2023-04-24T13:26:10.088Z,2.85
2023-04-24T13:28:36.416Z,2.70
2023-04-24T13:31:02.805Z,2.38
2023-04-24T13:33:29.907Z,2.75
2023-04-24T13:35:56.267Z,2.75
2023-04-24T13:38:23.404Z,3.03
2023-04-24T13:40:49.950Z,2.85
2023-04-24T13:43:16.664Z,3.10
2023-04-24T13:45:43.336Z,3.50
2023-04-24T13:48:10.219Z,3.47
2023-04-24T13:50:38.275Z,3.47
2023-04-24T13:53:04.743Z,3.00
2023-04-24T13:55:31.863Z,3.20
2023-04-24T13:57:58.202Z,3.15
2023-04-24T14:00:24.608Z,2.90
2023-04-24T14:02:51.720Z,3.22
2023-04-24T14:05:19.163Z,2.53
2023-04-24T14:07:45.515Z,2.58
2023-04-24T14:10:11.916Z,2.55
2023-04-24T14:12:38.387Z,3.03
2023-04-24T14:15:05.964Z,2.80
2023-04-24T14:17:32.447Z,2.67
2023-04-24T14:20:00.866Z,2.95
2023-04-24T14:22:27.327Z,2.92
2023-04-24T14:24:53.767Z,3.00
2023-04-24T14:27:20.146Z,3.10
2023-04-24T14:29:46.734Z,3.25
2023-04-24T14:32:15.810Z,3.30
2023-04-24T14:34:42.609Z,2.90
2023-04-24T14:37:09.264Z,2.67
2023-04-24T14:39:35.682Z,2.95
2023-04-24T14:42:02.428Z,2.90
2023-04-24T14:44:28.852Z,2.40
2023-04-24T14:46:55.225Z,3.40
2023-04-24T14:49:21.684Z,2.67
2023-04-24T14:51:48.032Z,3.00
2023-04-24T14:54:14.410Z,2.80
2023-04-24T14:56:41.912Z,2.90
2023-04-24T14:59:08.387Z,2.60
2023-04-24T15:01:34.926Z,2.63
2023-04-24T15:04:01.469Z,2.63
2023-04-24T15:06:27.984Z,3.03
2023-04-24T15:08:54.686Z,2.70
2023-04-24T15:11:21.154Z,3.08
2023-04-24T15:13:47.822Z,3.03
2023-04-24T15:16:14.666Z,2.67
2023-04-24T15:18:41.068Z,2.75
2023-04-24T15:21:07.393Z,3.67
2023-04-24T15:23:33.820Z,2.83
2023-04-24T15:26:00.788Z,2.70
2023-04-24T15:28:30.611Z,2.90
2023-04-24T15:30:56.966Z,2.83
2023-04-24T15:33:23.957Z,3.35
2023-04-24T15:35:50.328Z,3.30
2023-04-24T15:38:16.828Z,2.50
2023-04-24T15:40:43.261Z,3.05
2023-04-24T15:43:09.898Z,3.05
2023-04-24T15:45:36.400Z,2.90
2023-04-24T15:48:02.821Z,2.65
2023-04-24T15:50:29.242Z,3.00
2023-04-24T15:52:55.579Z,2.90
2023-04-24T15:55:21.971Z,3.00
2023-04-24T15:57:51.313Z,3.17
2023-04-24T16:00:18.179Z,3.38
2023-04-24T16:02:44.680Z,3.10
2023-04-24T16:05:11.673Z,2.78
2023-04-24T16:07:39.220Z,2.80
2023-04-24T16:10:06.330Z,3.10
2023-04-24T16:12:32.918Z,3.00
2023-04-24T16:15:01.311Z,3.53
2023-04-24T16:17:27.840Z,3.03
2023-04-24T16:19:54.318Z,3.22
2023-04-24T16:22:20.758Z,2.92
2023-04-24T16:24:47.953Z,3.08
2023-04-24T16:27:18.331Z,2.70
2023-04-24T16:29:44.946Z,2.72
2023-04-24T16:32:11.265Z,2.30
2023-04-24T16:34:37.836Z,2.95
2023-04-24T16:37:05.341Z,2.70
2023-04-24T16:39:31.753Z,2.58
2023-04-24T16:41:59.759Z,2.90
2023-04-24T16:44:26.664Z,2.70
2023-04-24T16:46:53.084Z,2.90
2023-04-24T16:49:19.656Z,2.92
2023-04-24T16:51:46.121Z,3.50
2023-04-24T16:54:12.481Z,3.00
2023-04-24T16:56:38.826Z,3.22
2023-04-24T16:59:08.309Z,2.80
2023-04-24T17:01:35.271Z,3.20
2023-04-24T17:04:01.860Z,3.33
2023-04-24T17:06:28.366Z,3.40
2023-04-24T17:08:54.741Z,2.63
2023-04-24T17:11:21.585Z,3.33
2023-04-24T17:13:47.978Z,3.20
2023-04-24T17:16:14.530Z,3.22
2023-04-24T17:18:41.081Z,3.30
2023-04-24T17:21:07.401Z,3.15
2023-04-24T17:23:33.748Z,2.95
2023-04-24T17:26:00.264Z,3.05
2023-04-24T17:28:30.920Z,2.88
2023-04-24T17:30:58.302Z,2.95
2023-04-24T17:33:28.238Z,3.17
2023-04-24T17:35:54.897Z,2.88
2023-04-24T17:38:21.609Z,2.72
2023-04-24T17:40:48.016Z,2.90
2023-04-24T17:43:17.952Z,2.85
2023-04-24T17:45:48.092Z,2.47
2023-04-24T17:48:14.760Z,2.53
2023-04-24T17:50:41.349Z,2.80
2023-04-24T17:53:08.371Z,3.03
2023-04-24T17:55:35.007Z,3.38
2023-04-24T17:58:04.105Z,2.75
2023-04-24T18:00:31.700Z,2.78
2023-04-24T18:03:01.197Z,2.80
2023-04-24T18:05:31.802Z,2.83
2023-04-24T18:07:58.530Z,2.88
2023-04-24T18:10:26.443Z,3.30
2023-04-24T18:12:52.865Z,3.53
2023-04-24T18:15:19.466Z,3.88
2023-04-24T18:17:46.160Z,3.67
2023-04-24T18:20:13.603Z,3.95
2023-04-24T18:22:40.477Z,4.50
2023-04-24T18:25:07.164Z,3.92
2023-04-24T18:27:33.533Z,3.67
2023-04-24T18:30:00.040Z,3.30
2023-04-24T18:32:26.945Z,3.88
2023-04-24T18:34:53.499Z,4.13
2023-04-24T18:37:19.870Z,3.40
2023-04-24T18:39:46.218Z,3.92
2023-04-24T18:42:12.612Z,4.10
2023-04-24T18:44:41.008Z,3.70
2023-04-24T18:47:09.436Z,4.68
2023-04-24T18:49:36.108Z,4.25
2023-04-24T18:52:02.664Z,3.95
2023-04-24T18:54:29.155Z,4.38
2023-04-24T18:56:56.491Z,4.28
2023-04-24T18:59:22.842Z,4.10
2023-04-24T19:01:49.262Z,3.00
2023-04-24T19:04:15.946Z,3.22
2023-04-24T19:06:42.372Z,2.95
2023-04-24T19:09:08.805Z,3.58
2023-04-24T19:11:35.163Z,3.50
2023-04-24T19:14:04.017Z,3.40
2023-04-24T19:16:30.587Z,3.40
2023-04-24T19:18:57.093Z,3.65
2023-04-24T19:21:23.511Z,3.15
2023-04-24T19:23:52.270Z,3.30
2023-04-24T19:26:20.393Z,3.20
2023-04-24T19:28:47.087Z,3.70
2023-04-24T19:31:13.600Z,3.60
2023-04-24T19:33:40.077Z,3.97
2023-04-24T19:36:06.820Z,3.08
2023-04-24T19:38:33.286Z,3.33
2023-04-24T19:40:59.645Z,3.10
2023-04-24T19:43:26.902Z,3.60
2023-04-24T19:45:53.425Z,3.60
2023-04-24T19:48:19.967Z,3.78
2023-04-24T19:50:46.565Z,4.05
2023-04-24T19:53:12.878Z,3.97
2023-04-24T19:55:39.317Z,3.85
2023-04-24T19:58:05.984Z,4.05
2023-04-24T20:00:32.385Z,3.50
2023-04-24T20:02:58.810Z,4.00
2023-04-24T20:05:27.581Z,4.30
2023-04-24T20:07:54.108Z,4.28
2023-04-24T20:10:20.475Z,4.00
2023-04-24T20:12:46.868Z,3.83
2023-04-24T20:15:13.368Z,3.78
2023-04-24T20:17:43.002Z,4.07
2023-04-24T20:20:10.042Z,3.75
2023-04-24T20:22:38.853Z,3.63
2023-04-24T20:25:11.476Z,3.42
2023-04-24T20:27:37.951Z,3.53
2023-04-24T20:30:04.608Z,3.50
2023-04-24T20:32:31.560Z,3.40
2023-04-24T20:34:58.449Z,3.53
2023-04-24T20:37:24.817Z,3.30
2023-04-24T20:39:51.904Z,3.60
2023-04-24T20:42:18.440Z,3.15
2023-04-24T20:44:45.715Z,3.22
2023-04-24T20:47:12.056Z,3.47
2023-04-24T20:49:38.477Z,4.05
2023-04-24T20:52:04.925Z,3.95
2023-04-24T20:54:31.242Z,4.22
2023-04-24T20:56:57.903Z,3.90
2023-04-24T20:59:24.269Z,3.88
2023-04-24T21:01:51.241Z,3.28
2023-04-24T21:04:17.741Z,3.42
2023-04-24T21:06:44.179Z,3.88
2023-04-24T21:09:10.545Z,3.65
2023-04-24T21:11:36.898Z,3.55
2023-04-24T21:14:03.470Z,3.50
2023-04-24T21:16:29.859Z,3.40
2023-04-24T21:18:56.215Z,4.20
2023-04-24T21:21:24.921Z,3.67
2023-04-24T21:23:51.635Z,4.38
2023-04-24T21:26:18.041Z,3.67
2023-04-24T21:28:44.521Z,4.03
2023-04-24T21:31:11.545Z,3.38
2023-04-24T21:33:38.019Z,5.10
2023-04-24T21:36:04.583Z,4.18
2023-04-24T21:38:30.940Z,4.18
2023-04-24T21:40:57.608Z,4.82
2023-04-24T21:43:33.687Z,5.85
2023-04-24T21:46:03.984Z,5.93
2023-04-24T21:48:30.429Z,5.97
2023-04-24T21:50:58.387Z,5.93
2023-04-24T21:53:24.712Z,6.63
2023-04-24T21:55:51.297Z,6.22
2023-04-24T21:58:17.858Z,5.93
2023-04-24T22:00:44.232Z,6.07
2023-04-24T22:03:10.990Z,6.45
2023-04-24T22:05:37.447Z,6.53
2023-04-24T22:08:03.838Z,7.53
2023-04-24T22:10:30.221Z,6.80
2023-04-24T22:12:56.665Z,7.00
2023-04-24T22:15:23.030Z,6.40
2023-04-24T22:17:49.791Z,6.70
2023-04-24T22:20:18.889Z,7.40
2023-04-24T22:22:45.309Z,7.18
2023-04-24T22:25:12.694Z,7.47
2023-04-24T22:27:39.065Z,6.35
2023-04-24T22:30:06.185Z,7.10
2023-04-24T22:32:33.051Z,6.53
2023-04-24T22:34:59.507Z,7.70
2023-04-24T22:37:25.887Z,7.57
2023-04-24T22:39:52.210Z,6.53
2023-04-24T22:42:18.657Z,7.22
2023-04-24T22:44:45.168Z,6.85
2023-04-24T22:47:11.589Z,7.10
2023-04-24T22:49:38.088Z,6.97
2023-04-24T22:52:05.059Z,6.95
2023-04-24T22:54:33.435Z,6.68
2023-04-24T22:56:59.853Z,6.75
2023-04-24T22:59:26.635Z,7.00
2023-04-24T23:01:53.312Z,7.85
2023-04-24T23:04:19.766Z,7.45
2023-04-24T23:06:46.233Z,7.80
2023-04-24T23:09:12.745Z,7.38
2023-04-24T23:11:39.157Z,8.15
2023-04-24T23:14:05.507Z,8.50
2023-04-24T23:16:32.141Z,7.90
2023-04-24T23:18:58.542Z,8.40
2023-04-24T23:21:24.970Z,8.82
2023-04-24T23:23:52.811Z,8.40
2023-04-24T23:26:19.343Z,8.48
2023-04-24T23:28:45.808Z,8.68
2023-04-24T23:31:12.313Z,8.55
2023-04-24T23:33:38.691Z,8.57
2023-04-24T23:36:05.603Z,8.23
2023-04-24T23:38:39.938Z,8.07
2023-04-24T23:41:16.164Z,7.93
2023-04-24T23:43:42.580Z,8.23
2023-04-24T23:46:08.980Z,8.13
2023-04-24T23:48:36.903Z,7.60
2023-04-24T23:51:03.269Z,7.53
2023-04-24T23:53:30.161Z,7.30
2023-04-24T23:55:57.029Z,7.38
2023-04-24T23:58:23.399Z,7.10
